Time;durP1;ratioP1;P1;durP2;ratioP2;P2;SDS_P1;SDS_P2;PMS_P1;PMS_P2;Temp;Humidity;BMP_temperature;BMP_pressure;BME280_temperature;BME280_humidity;BME280_pressure;Samples;Min_cycle;Max_cycle;Signal;HPM_P1;HPM_P2
2022/08/18 00:02:14;;;;;;;5.23;4.03;;;;;;;18.63;87.97;101199.16;5056205;28;20052;-88
2022/08/18 00:04:48;;;;;;;4.20;3.60;;;;;;;18.62;87.93;101191.34;5056368;28;20032;-87
2022/08/18 00:07:31;;;;;;;5.15;3.70;;;;;;;18.61;87.95;101201.00;5055505;28;20550;-87
2022/08/18 00:09:57;;;;;;;4.15;3.42;;;;;;;18.61;87.94;101200.16;5054637;28;20489;-88
2022/08/18 00:12:40;;;;;;;4.63;3.60;;;;;;;18.60;88.03;101208.97;5055763;28;20125;-87
2022/08/18 00:15:09;;;;;;;5.15;3.67;;;;;;;18.61;87.77;101210.69;5055862;28;20104;-87
2022/08/18 00:17:37;;;;;;;4.75;3.70;;;;;;;18.61;88.04;101213.31;5055865;28;20470;-87
2022/08/18 00:20:25;;;;;;;4.18;3.40;;;;;;;18.62;87.76;101213.22;5054330;28;20033;-86
2022/08/18 00:22:51;;;;;;;4.60;3.53;;;;;;;18.63;87.80;101208.84;5055323;28;20025;-87
2022/08/18 00:25:29;;;;;;;5.15;3.80;;;;;;;18.63;87.96;101206.22;5055784;28;20120;-88
2022/08/18 00:27:54;;;;;;;4.68;3.55;;;;;;;18.64;88.03;101211.38;5054282;28;20122;-86
2022/08/18 00:30:20;;;;;;;4.53;3.50;;;;;;;18.67;87.97;101215.66;5072755;22;20049;-87
2022/08/18 00:32:50;;;;;;;5.15;3.60;;;;;;;18.67;88.59;101220.91;5075517;28;20028;-88
2022/08/18 00:35:25;;;;;;;4.38;3.30;;;;;;;18.67;88.14;101226.16;5075464;28;20029;-88
2022/08/18 00:37:52;;;;;;;4.53;3.45;;;;;;;18.67;88.02;101227.03;5075817;28;20384;-87
2022/08/18 00:40:22;;;;;;;4.82;3.45;;;;;;;18.68;88.13;101220.00;5075529;28;20024;-88
2022/08/18 00:42:53;;;;;;;4.35;3.40;;;;;;;18.68;88.07;101226.13;5075453;28;20044;-88
2022/08/18 00:45:27;;;;;;;4.30;3.38;;;;;;;18.68;88.76;101235.75;5075664;28;20029;-87
2022/08/18 00:47:53;;;;;;;4.07;3.03;;;;;;;18.67;88.21;101239.31;5074480;28;20107;-87
2022/08/18 00:50:36;;;;;;;5.03;3.47;;;;;;;18.68;88.20;101235.75;5062939;28;20132;-87
2022/08/18 00:53:26;;;;;;;4.00;3.22;;;;;;;18.66;88.28;101238.47;5051321;28;20028;-87
2022/08/18 00:55:53;;;;;;;4.80;3.50;;;;;;;18.66;88.28;101237.59;5037059;28;20055;-86
2022/08/18 00:58:38;;;;;;;4.82;3.60;;;;;;;18.67;88.30;101236.69;5055381;28;20021;-88
2022/08/18 01:01:22;;;;;;;5.60;3.87;;;;;;;18.66;90.39;101238.47;5055149;28;20029;-88
2022/08/18 01:04:12;;;;;;;4.75;3.67;;;;;;;18.64;88.92;101237.69;5054442;28;20055;-87
2022/08/18 01:06:50;;;;;;;6.20;4.00;;;;;;;18.60;88.82;101217.69;5055145;28;20031;-87
2022/08/18 01:09:31;;;;;;;4.63;3.40;;;;;;;18.61;88.76;101236.97;5054657;28;20024;-87
2022/08/18 01:11:57;;;;;;;4.15;3.30;;;;;;;18.59;89.03;101234.38;5053729;28;20021;-87
2022/08/18 01:14:31;;;;;;;4.03;3.00;;;;;;;18.56;88.85;101228.41;5060494;28;20032;-87
2022/08/18 01:22:43;;;;;;;4.53;3.45;;;;;;;18.50;88.02;101219.00;5055236;28;20094;-88
2022/08/18 01:27:55;;;;;;;3.92;2.80;;;;;;;18.46;89.07;101231.44;5054964;28;20040;-87
2022/08/18 01:30:24;;;;;;;3.22;2.63;;;;;;;18.42;89.11;101221.94;5053227;28;20049;-87
2022/08/18 01:32:55;;;;;;;4.18;3.20;;;;;;;18.37;88.96;101227.41;5050299;28;20052;-86
2022/08/18 01:35:39;;;;;;;3.90;3.08;;;;;;;18.36;88.94;101222.22;5054263;28;20498;-88
2022/08/18 01:38:05;;;;;;;3.00;2.70;;;;;;;18.34;89.43;101232.81;5053846;28;20017;-87
2022/08/18 01:40:36;;;;;;;3.87;2.80;;;;;;;18.33;89.04;101220.59;5054697;28;20384;-87
2022/08/18 01:43:03;;;;;;;3.30;2.80;;;;;;;18.30;88.97;101228.59;5065173;28;20020;-87
2022/08/18 01:45:34;;;;;;;4.55;3.30;;;;;;;18.31;88.85;101229.44;5069124;28;20021;-87
2022/08/18 01:48:15;;;;;;;4.30;3.28;;;;;;;18.30;88.77;101223.34;5053405;28;20525;-87
2022/08/18 01:50:43;;;;;;;3.30;2.90;;;;;;;18.29;89.86;101226.03;5054472;28;20385;-87
2022/08/18 01:53:14;;;;;;;4.95;3.47;;;;;;;18.27;89.07;101225.25;5053019;28;20768;-87
2022/08/18 01:55:44;;;;;;;4.30;3.17;;;;;;;18.24;88.91;101217.47;5054414;28;20385;-87
2022/08/18 01:58:12;;;;;;;3.70;3.00;;;;;;;18.21;88.93;101216.69;5053082;28;20036;-87
2022/08/18 02:00:39;;;;;;;4.25;3.20;;;;;;;18.20;88.99;101214.13;5053871;28;20488;-87
2022/08/18 02:03:20;;;;;;;4.13;3.10;;;;;;;18.17;88.92;101212.50;5053637;28;20017;-87
2022/08/18 02:05:49;;;;;;;4.68;3.10;;;;;;;18.15;88.79;101209.06;5053534;28;20021;-87
2022/08/18 02:08:24;;;;;;;3.60;3.10;;;;;;;18.14;88.90;101211.75;5053883;28;20017;-87
2022/08/18 02:10:49;;;;;;;4.38;3.30;;;;;;;18.12;88.78;101201.31;5053272;28;20052;-87
2022/08/18 02:13:26;;;;;;;4.47;3.50;;;;;;;18.12;88.63;101203.09;5053442;28;20021;-88
2022/08/18 02:15:52;;;;;;;5.25;3.60;;;;;;;18.08;88.65;101199.72;5053203;28;20025;-87
2022/08/18 02:18:32;;;;;;;4.97;3.60;;;;;;;18.08;88.72;101212.84;5053660;28;20112;-87
2022/08/18 02:21:04;;;;;;;5.82;3.90;;;;;;;18.08;88.71;101210.22;5072071;28;20441;-88
2022/08/18 02:23:40;;;;;;;5.30;3.80;;;;;;;18.02;88.65;101213.94;5073251;28;20016;-87
2022/08/18 02:26:08;;;;;;;5.32;3.78;;;;;;;18.02;88.63;101208.69;5073418;28;20040;-87
2022/08/18 02:28:39;;;;;;;6.32;4.15;;;;;;;18.01;88.63;101219.28;5071728;28;20039;-87
2022/08/18 02:31:10;;;;;;;5.35;4.10;;;;;;;17.99;88.39;101219.34;5078135;22;20052;-87
2022/08/18 02:33:43;;;;;;;6.13;4.30;;;;;;;17.98;88.45;101230.78;5053037;28;20048;-87
2022/08/18 02:36:09;;;;;;;5.78;3.90;;;;;;;17.94;88.50;101223.88;5053421;28;20059;-87
2022/08/18 02:38:41;;;;;;;5.25;3.67;;;;;;;17.91;88.44;101221.38;5053494;28;20432;-87
2022/08/18 02:41:09;;;;;;;5.50;3.97;;;;;;;17.87;88.27;101223.28;5052755;28;20082;-88
2022/08/18 02:43:43;;;;;;;5.40;3.97;;;;;;;17.83;88.24;101231.34;5053426;28;20017;-87
2022/08/18 02:46:09;;;;;;;6.32;4.25;;;;;;;17.79;88.54;101228.00;5053046;28;20029;-87
2022/08/18 02:48:44;;;;;;;5.63;3.97;;;;;;;17.77;88.26;101234.22;5052863;28;20044;-87
2022/08/18 02:51:29;;;;;;;6.82;4.20;;;;;;;17.73;88.25;101230.88;5052831;28;20017;-87
2022/08/18 02:54:12;;;;;;;6.05;4.20;;;;;;;17.71;88.20;101236.16;5052786;28;20029;-87
2022/08/18 02:56:37;;;;;;;5.47;3.97;;;;;;;17.68;88.15;101236.28;5061316;28;20032;-88
2022/08/18 02:59:11;;;;;;;6.10;4.33;;;;;;;17.65;88.10;101232.91;5072671;28;20107;-87
2022/08/18 03:01:53;;;;;;;6.15;4.05;;;;;;;17.63;88.17;101233.00;5072445;28;20537;-87
2022/08/18 03:04:26;;;;;;;5.93;4.30;;;;;;;17.60;88.04;101222.59;5073097;28;20052;-87
2022/08/18 03:06:55;;;;;;;6.38;4.40;;;;;;;17.58;88.05;101224.41;5072613;28;20021;-87
2022/08/18 03:09:21;;;;;;;5.88;4.18;;;;;;;17.54;88.24;101231.56;5072734;28;20136;-87
2022/08/18 03:11:47;;;;;;;6.17;4.20;;;;;;;17.51;88.30;101225.59;5071720;28;20111;-87
2022/08/18 03:14:32;;;;;;;6.05;4.10;;;;;;;17.47;88.09;101227.47;5072415;28;20031;-87
2022/08/18 03:17:13;;;;;;;6.68;4.47;;;;;;;17.44;88.32;101228.47;5072415;28;20431;-87
2022/08/18 03:19:44;;;;;;;5.97;4.05;;;;;;;17.39;88.12;101226.91;5072854;28;20507;-87
2022/08/18 03:22:24;;;;;;;6.10;4.10;;;;;;;17.36;88.18;101229.66;5072775;28;20032;-87
2022/08/18 03:24:49;;;;;;;6.97;4.65;;;;;;;17.36;88.14;101233.13;5072060;28;20118;-87
2022/08/18 03:27:24;;;;;;;5.93;4.20;;;;;;;17.34;88.13;101239.34;5070050;28;20048;-87
2022/08/18 03:29:50;;;;;;;5.97;4.00;;;;;;;17.31;88.25;101242.06;5051515;28;20099;-87
2022/08/18 03:32:16;;;;;;;4.97;3.93;;;;;;;17.28;88.28;101243.03;5052642;28;20049;-88
2022/08/18 03:34:42;;;;;;;6.57;4.30;;;;;;;17.25;88.28;101249.28;5054272;28;20021;-88
2022/08/18 03:37:08;;;;;;;5.90;4.10;;;;;;;17.23;88.32;101240.59;5056242;28;20063;-87
2022/08/18 03:39:36;;;;;;;6.03;4.07;;;;;;;17.20;88.16;101239.84;5056508;28;20558;-87
2022/08/18 03:42:01;;;;;;;5.68;3.88;;;;;;;17.18;88.26;101241.69;5056771;28;20032;-87
2022/08/18 03:44:29;;;;;;;4.07;3.37;;;;;;;17.16;88.38;101252.22;5056313;28;20025;-88
2022/08/18 03:46:56;;;;;;;5.10;3.58;;;;;;;17.15;88.30;101253.16;5056155;28;20025;-87
2022/08/18 03:49:37;;;;;;;5.75;3.92;;;;;;;17.12;88.19;101250.63;5056846;28;20394;-88
2022/08/18 03:52:04;;;;;;;5.22;3.60;;;;;;;17.10;88.07;101250.69;5055948;28;20150;-88
2022/08/18 03:54:37;;;;;;;5.30;4.00;;;;;;;17.05;88.19;101250.00;5057113;28;20029;-88
2022/08/18 03:57:03;;;;;;;5.35;3.83;;;;;;;17.05;88.15;101250.00;5078858;22;20063;-88
2022/08/18 03:59:30;;;;;;;4.50;3.50;;;;;;;17.02;88.21;101250.09;5075424;28;20396;-87
2022/08/18 04:02:02;;;;;;;5.90;4.20;;;;;;;17.02;88.24;101247.47;5076500;28;20020;-88
2022/08/18 04:04:28;;;;;;;6.00;4.05;;;;;;;17.02;88.26;101239.59;5076252;28;20077;-88
2022/08/18 04:06:57;;;;;;;7.10;4.10;;;;;;;17.03;88.03;101243.94;5072953;28;20389;-87
2022/08/18 04:09:40;;;;;;;5.75;4.00;;;;;;;17.02;88.00;101244.00;5056423;28;20036;-88
2022/08/18 04:12:14;;;;;;;5.25;3.70;;;;;;;17.03;88.27;101248.34;5055677;28;20111;-87
2022/08/18 04:14:57;;;;;;;4.43;3.40;;;;;;;17.04;88.41;101245.66;5056451;28;20072;-88
2022/08/18 04:17:23;;;;;;;3.25;2.92;;;;;;;17.03;88.66;101243.09;5056374;28;20075;-88
2022/08/18 04:20:07;;;;;;;3.75;3.08;;;;;;;17.01;88.62;101234.41;5055455;28;20060;-87
2022/08/18 04:22:33;;;;;;;3.75;3.13;;;;;;;17.02;88.60;101247.47;5122206;22;20059;-88
2022/08/18 04:24:59;;;;;;;3.73;3.13;;;;;;;17.04;88.50;101248.28;5075966;28;20029;-88
2022/08/18 04:27:26;;;;;;;3.33;2.95;;;;;;;17.06;88.24;101240.34;5076027;28;20070;-87
2022/08/18 04:29:51;;;;;;;3.58;2.90;;;;;;;17.08;88.73;101246.38;5075680;28;20025;-88
2022/08/18 04:32:26;;;;;;;2.83;2.60;;;;;;;17.09;88.81;101243.72;5083208;22;20056;-89
2022/08/18 04:34:51;;;;;;;3.95;3.00;;;;;;;17.09;88.81;101246.34;5073819;28;20042;-88
2022/08/18 04:37:22;;;;;;;4.40;3.37;;;;;;;17.12;88.85;101240.13;5055799;28;20021;-89
2022/08/18 04:39:47;;;;;;;3.80;2.95;;;;;;;17.14;88.89;101241.78;5056009;28;20040;-88
2022/08/18 04:42:28;;;;;;;3.80;3.10;;;;;;;17.16;88.88;101248.75;5055033;28;20533;-88
2022/08/18 04:44:53;;;;;;;5.00;3.50;;;;;;;17.17;88.87;101248.66;5055244;28;20028;-88
2022/08/18 04:47:19;;;;;;;4.33;3.23;;;;;;;17.20;88.90;101245.94;5054771;28;20493;-88
2022/08/18 04:49:50;;;;;;;4.10;3.20;;;;;;;17.20;89.05;101248.56;5055761;28;20393;-88
2022/08/18 04:55:00;;;;;;;4.22;3.28;;;;;;;17.25;89.08;101266.75;5054891;28;20092;-88
2022/08/18 04:57:26;;;;;;;4.70;3.30;;;;;;;17.27;89.06;101264.94;5055524;28;20055;-88
2022/08/18 04:59:52;;;;;;;4.73;3.47;;;;;;;17.28;89.46;101270.13;5055648;28;20056;-88
2022/08/18 05:02:30;;;;;;;4.55;3.30;;;;;;;17.29;89.24;101260.50;5055247;28;20079;-88
2022/08/18 05:04:55;;;;;;;4.10;2.90;;;;;;;17.28;89.15;101257.00;5067717;28;20424;-90
2022/08/18 05:07:30;;;;;;;4.27;3.17;;;;;;;17.28;89.21;101256.16;5055853;28;20056;-87
2022/08/18 05:09:55;;;;;;;4.60;3.40;;;;;;;17.29;89.18;101255.25;5055079;28;20036;-83
2022/08/18 05:12:36;;;;;;;4.40;3.30;;;;;;;17.32;89.42;101257.78;5055127;28;20370;-83
2022/08/18 05:15:01;;;;;;;4.35;3.17;;;;;;;17.32;89.48;101270.88;5054620;28;20032;-84
2022/08/18 05:17:38;;;;;;;4.30;3.27;;;;;;;17.32;89.40;101270.88;5054748;28;20025;-88
2022/08/18 05:20:07;;;;;;;5.45;3.40;;;;;;;17.35;89.22;101276.00;5053660;28;20120;-84
2022/08/18 05:22:38;;;;;;;5.20;3.55;;;;;;;17.37;89.93;101278.59;5053941;28;20078;-84
2022/08/18 05:25:04;;;;;;;4.63;3.33;;;;;;;17.35;89.62;101269.91;5054421;28;20032;-84
2022/08/18 05:27:34;;;;;;;3.92;2.97;;;;;;;17.37;89.76;101273.34;5054722;28;20032;-84
2022/08/18 05:30:01;;;;;;;4.57;3.20;;;;;;;17.39;89.59;101268.91;5057278;28;20039;-84
2022/08/18 05:32:30;;;;;;;;;;;;;;;17.42;89.49;101269.63;5074822;28;20098;-84
2022/08/18 05:34:56;;;;;;;5.43;3.70;;;;;;;17.45;89.65;101269.50;5073914;28;19912;-84
2022/08/18 05:37:31;;;;;;;4.15;3.20;;;;;;;17.50;89.41;101276.34;5073403;28;20028;-84
2022/08/18 05:40:00;;;;;;;4.72;3.50;;;;;;;17.52;89.47;101274.53;5073794;28;20377;-84
2022/08/18 05:42:28;;;;;;;4.28;3.20;;;;;;;17.57;89.54;101280.44;5074548;28;20031;-84
2022/08/18 05:44:54;;;;;;;4.22;3.17;;;;;;;17.60;89.61;101285.59;5073213;28;20025;-84
2022/08/18 05:47:26;;;;;;;5.05;3.40;;;;;;;17.64;89.48;101281.94;5074117;28;20107;-84
2022/08/18 05:49:54;;;;;;;3.63;2.85;;;;;;;17.65;89.62;101278.41;5064055;28;20025;-86
2022/08/18 05:53:05;;;;;;;5.50;3.58;;;;;;;17.68;89.27;101280.88;5053646;28;20369;-83
2022/08/18 05:58:49;;;;;;;5.03;3.45;;;;;;;17.73;89.63;101291.25;4985117;28;20553;-81
2022/08/18 06:01:21;;;;;;;5.00;3.53;;;;;;;17.78;89.58;101286.66;5063895;28;20043;-81
2022/08/18 06:04:02;;;;;;;5.78;3.65;;;;;;;17.83;89.33;101294.34;5073901;28;20039;-81
2022/08/18 06:06:29;;;;;;;5.15;3.75;;;;;;;17.87;89.30;101295.97;5073381;28;20050;-81
2022/08/18 06:09:36;;;;;;;6.95;3.92;;;;;;;17.92;89.19;101296.63;5072711;28;20059;-80
2022/08/18 06:12:12;;;;;;;7.35;4.38;;;;;;;18.01;89.31;101301.53;5072760;28;20031;-84
2022/08/18 06:14:38;;;;;;;5.82;3.92;;;;;;;18.07;89.72;101289.94;5073460;28;20040;-84
2022/08/18 06:17:09;;;;;;;4.90;3.60;;;;;;;18.11;89.67;101293.31;5074267;28;20024;-91
2022/08/18 06:19:46;;;;;;;4.53;3.10;;;;;;;18.12;89.53;101290.63;5073043;28;20040;-90
2022/08/18 06:22:24;;;;;;;3.60;2.88;;;;;;;18.14;89.45;101286.16;5073976;28;20085;-91
2022/08/18 06:25:05;;;;;;;4.50;3.40;;;;;;;18.16;89.68;101294.84;5072967;28;20389;-90
2022/08/18 06:27:48;;;;;;;4.05;3.05;;;;;;;18.17;89.60;101299.19;5073963;28;20044;-89
2022/08/18 06:30:21;;;;;;;8.95;5.07;;;;;;;18.16;90.41;101302.72;5073944;28;20032;-92
2022/08/18 06:33:11;;;;;;;9.63;5.32;;;;;;;18.16;91.45;101305.34;5073736;28;20071;-95
2022/08/18 06:35:49;;;;;;;12.15;6.97;;;;;;;18.16;89.83;101304.47;5075510;28;20027;-93
2022/08/18 06:38:40;;;;;;;9.75;5.95;;;;;;;18.24;89.49;101312.91;5074528;28;20024;-93
2022/08/18 06:41:15;;;;;;;10.32;5.68;;;;;;;18.31;89.46;101314.38;5073508;28;20028;-92
2022/08/18 06:44:18;;;;;;;6.60;4.40;;;;;;;18.43;89.61;101313.00;5074376;28;20025;-93
2022/08/18 06:46:49;;;;;;;6.40;4.00;;;;;;;18.49;89.77;101315.41;5064188;28;20135;-93
2022/08/18 06:49:41;;;;;;;6.60;4.30;;;;;;;18.53;88.97;101306.47;5073375;28;20036;-92
2022/08/18 06:52:33;;;;;;;6.85;4.38;;;;;;;18.62;88.83;101315.75;5016621;28;20109;-93
2022/08/18 06:55:02;;;;;;;7.28;4.68;;;;;;;18.71;88.61;101313.63;5052942;28;20025;-92
2022/08/18 06:57:32;;;;;;;8.07;4.30;;;;;;;18.77;88.70;101318.66;5054132;28;20029;-92
2022/08/18 07:00:06;;;;;;;6.72;4.03;;;;;;;18.82;88.64;101312.28;5053955;28;20029;-92
2022/08/18 07:02:54;;;;;;;6.00;3.85;;;;;;;18.92;90.56;101317.97;5053065;28;20037;-93
2022/08/18 07:05:21;;;;;;;10.57;6.20;;;;;;;19.14;89.98;101324.97;5054249;28;20103;-92
2022/08/18 07:08:02;;;;;;;8.18;5.07;;;;;;;19.30;88.96;101322.56;5053072;28;20354;-93
2022/08/18 07:10:35;;;;;;;8.10;5.05;;;;;;;19.37;88.30;101323.09;5052800;28;20029;-93
2022/08/18 07:13:15;;;;;;;8.13;4.82;;;;;;;19.39;87.52;101322.13;5053939;28;20059;-92
2022/08/18 07:15:44;;;;;;;7.05;4.53;;;;;;;19.39;87.21;101322.13;5052665;28;20025;-93
2022/08/18 07:18:11;;;;;;;6.88;4.60;;;;;;;19.47;87.77;101328.81;5054395;28;20029;-93
2022/08/18 07:20:45;;;;;;;7.32;4.63;;;;;;;19.48;87.58;101320.84;5053705;28;20040;-93
2022/08/18 07:23:24;;;;;;;5.88;3.97;;;;;;;19.51;87.77;101322.50;5052802;28;20037;-92
2022/08/18 07:26:13;;;;;;;4.20;3.42;;;;;;;19.52;87.34;101317.16;5053360;28;20017;-93
2022/08/18 07:28:43;;;;;;;5.15;3.58;;;;;;;19.56;87.68;101323.13;5059527;28;20067;-93
2022/08/18 07:31:36;;;;;;;4.88;3.50;;;;;;;19.61;87.49;101326.44;5053234;28;20513;-93
2022/08/18 07:34:07;;;;;;;7.38;4.10;;;;;;;19.69;86.95;101326.06;5068168;28;20384;-94
2022/08/18 07:36:40;;;;;;;6.43;4.25;;;;;;;19.73;86.81;101323.22;5073414;28;20016;-94
2022/08/18 07:39:13;;;;;;;5.53;3.90;;;;;;;19.86;87.08;101315.63;5073076;28;20029;-89
2022/08/18 07:41:57;;;;;;;6.50;4.43;;;;;;;20.00;86.26;101322.88;5069546;28;20082;-88
2022/08/18 07:44:42;;;;;;;9.20;5.90;;;;;;;20.19;86.40;101329.91;5072102;28;20028;-88
2022/08/18 07:47:25;;;;;;;14.30;7.70;;;;;;;20.30;85.32;101332.03;5056438;28;20473;-89
2022/08/18 07:49:57;;;;;;;10.40;6.13;;;;;;;20.32;85.47;101335.44;5051700;28;20029;-88
2022/08/18 07:52:37;;;;;;;7.38;5.10;;;;;;;20.41;85.42;101324.44;5055154;28;20028;-86
2022/08/18 07:55:07;;;;;;;7.35;5.10;;;;;;;20.52;85.33;101334.47;5071270;28;20029;-89
2022/08/18 07:57:39;;;;;;;14.38;7.80;;;;;;;20.53;85.00;101333.53;5071980;28;20024;-89
2022/08/18 08:00:18;;;;;;;11.00;6.85;;;;;;;20.51;85.24;101333.59;5072118;28;20039;-89
2022/08/18 08:03:00;;;;;;;9.38;5.85;;;;;;;20.55;85.69;101333.47;5073026;28;20115;-89
2022/08/18 08:05:47;;;;;;;14.00;8.07;;;;;;;20.47;85.34;101332.06;5072623;28;20031;-90
2022/08/18 08:08:17;;;;;;;10.15;6.65;;;;;;;20.50;85.07;101331.91;5072662;28;20104;-89
2022/08/18 08:11:04;;;;;;;7.82;5.47;;;;;;;20.55;85.13;101331.66;5073045;28;20036;-89
2022/08/18 08:13:57;;;;;;;8.23;5.35;;;;;;;20.72;85.37;101332.63;5059404;28;20480;-89
2022/08/18 08:16:48;;;;;;;6.55;4.50;;;;;;;20.88;84.75;101335.34;5052963;28;20068;-89
2022/08/18 08:19:45;;;;;;;8.18;5.43;;;;;;;21.01;84.55;101325.88;5052033;28;20048;-89
2022/08/18 08:22:27;;;;;;;6.53;4.20;;;;;;;21.21;84.75;101324.00;5055831;28;20061;-88
2022/08/18 08:25:18;;;;;;;5.38;4.22;;;;;;;21.45;82.31;101332.38;5056161;28;20488;-89
2022/08/18 08:27:59;;;;;;;6.88;4.78;;;;;;;21.58;83.10;101337.88;5056084;28;20032;-88
2022/08/18 08:30:30;;;;;;;5.18;4.13;;;;;;;21.67;83.47;101337.41;5056317;28;20033;-88
2022/08/18 08:33:09;;;;;;;5.25;3.97;;;;;;;21.72;83.04;101343.31;5055285;28;20018;-88
2022/08/18 08:35:44;;;;;;;4.90;3.90;;;;;;;21.81;83.45;101343.72;5057004;28;20033;-89
2022/08/18 08:38:42;;;;;;;3.83;3.25;;;;;;;21.90;82.72;101335.28;5055441;28;20501;-88
2022/08/18 08:41:13;;;;;;;3.42;3.03;;;;;;;22.08;83.02;101337.81;5065263;28;20032;-88
2022/08/18 08:43:51;;;;;;;3.10;2.80;;;;;;;22.25;82.67;101329.81;5075963;28;20020;-88
2022/08/18 08:46:28;;;;;;;12.63;7.55;;;;;;;22.22;77.62;101335.25;5074710;28;20028;-88
2022/08/18 08:49:20;;;;;;;8.13;5.40;;;;;;;22.22;81.37;101337.91;5075513;28;20032;-87
2022/08/18 08:51:56;;;;;;;6.15;4.03;;;;;;;22.36;81.10;101348.56;5075685;28;20031;-88
2022/08/18 08:54:40;;;;;;;3.95;3.33;;;;;;;22.44;81.15;101342.88;5074697;28;20031;-87
2022/08/18 08:57:08;;;;;;;3.78;3.30;;;;;;;22.44;80.77;101357.88;5074977;28;20528;-87
2022/08/18 08:59:36;;;;;;;3.30;3.00;;;;;;;22.40;80.37;101351.03;5075209;28;20425;-88
2022/08/18 09:02:51;;;;;;;3.78;3.25;;;;;;;22.40;80.52;101345.75;5072373;28;20111;-87
2022/08/18 09:05:24;;;;;;;3.72;3.13;;;;;;;22.45;80.46;101341.06;5074919;28;20021;-86
2022/08/18 09:08:10;;;;;;;4.30;3.50;;;;;;;22.48;80.07;101343.53;5074386;28;20082;-87
2022/08/18 09:10:58;;;;;;;6.47;4.65;;;;;;;22.36;76.65;101345.03;5075289;28;20036;-87
2022/08/18 09:13:32;;;;;;;5.25;3.88;;;;;;;22.29;79.73;101343.69;5073099;28;20033;-87
2022/08/18 09:16:25;;;;;;;4.00;3.60;;;;;;;22.20;77.39;101345.06;5074133;28;20032;-87
2022/08/18 09:19:26;;;;;;;3.38;2.90;;;;;;;22.10;77.04;101352.69;5074606;28;20064;-87
2022/08/18 09:22:18;;;;;;;3.30;3.00;;;;;;;22.04;78.53;101353.88;5073982;28;20029;-87
2022/08/18 09:24:49;;;;;;;3.13;2.83;;;;;;;22.12;79.64;101350.81;5074868;28;20120;-87
2022/08/18 09:27:36;;;;;;;3.20;2.63;;;;;;;22.40;79.92;101351.03;5074379;28;20029;-87
2022/08/18 09:30:05;;;;;;;2.50;2.30;;;;;;;22.72;78.76;101353.63;5071823;28;20115;-86
2022/08/18 09:32:48;;;;;;;2.20;2.10;;;;;;;22.99;78.50;101344.03;5073528;28;20048;-87
2022/08/18 09:35:36;;;;;;;2.70;2.50;;;;;;;23.12;76.57;101343.31;5074764;28;20086;-86
2022/08/18 09:44:08;;;;;;;8.85;5.30;;;;;;;22.65;72.56;101340.75;5073551;28;20112;-86
2022/08/18 09:46:40;;;;;;;4.97;3.70;;;;;;;22.56;74.07;101338.66;5074301;28;20044;-86
2022/08/18 09:49:26;;;;;;;6.72;4.70;;;;;;;22.48;74.83;101339.09;5074285;28;20020;-86
2022/08/18 09:51:57;;;;;;;4.40;4.00;;;;;;;22.47;74.92;101339.19;5073978;28;20040;-86
2022/08/18 09:54:30;;;;;;;5.93;4.18;;;;;;;22.74;74.43;101334.06;5072304;28;20043;-86
2022/08/18 09:57:08;;;;;;;4.25;3.40;;;;;;;23.10;74.86;101331.94;5053170;28;20078;-86
2022/08/18 09:59:36;;;;;;;3.67;3.30;;;;;;;23.31;73.77;101343.06;5053909;28;20040;-87
2022/08/18 10:02:36;;;;;;;2.72;2.53;;;;;;;23.62;73.32;101341.16;5061390;28;20063;-86
2022/08/18 10:05:19;;;;;;;2.90;2.70;;;;;;;23.84;73.33;101334.50;5048007;28;20040;-86
2022/08/18 10:08:13;;;;;;;2.80;2.60;;;;;;;23.94;69.54;101326.81;5073812;28;20548;-86
2022/08/18 10:10:51;;;;;;;3.42;3.00;;;;;;;23.87;68.91;101337.78;5072760;28;20165;-87
2022/08/18 10:13:30;;;;;;;3.83;3.38;;;;;;;23.76;70.69;101334.97;5073616;28;20111;-86
2022/08/18 10:16:16;;;;;;;4.18;3.65;;;;;;;23.67;67.46;101328.50;5073769;28;20033;-87
2022/08/18 10:19:01;;;;;;;4.75;3.55;;;;;;;23.48;70.15;101327.91;5065247;28;20489;-85
2022/08/18 10:21:57;;;;;;;7.20;4.55;;;;;;;23.40;68.37;101334.56;5069528;28;20037;-86
2022/08/18 10:24:40;;;;;;;4.55;3.70;;;;;;;23.38;70.42;101328.50;5073386;28;20124;-85
2022/08/18 10:27:28;;;;;;;3.30;3.00;;;;;;;23.50;71.36;101326.91;5072186;28;20542;-86
2022/08/18 10:30:05;;;;;;;2.92;2.70;;;;;;;23.66;69.85;101332.09;5062176;28;20044;-86
2022/08/18 10:32:52;;;;;;;3.13;2.70;;;;;;;23.86;69.35;101322.88;5069051;28;20052;-86
2022/08/18 10:35:55;;;;;;;5.40;4.22;;;;;;;23.84;68.88;101324.75;5073320;28;20032;-85
2022/08/18 10:38:42;;;;;;;3.20;2.90;;;;;;;23.88;70.29;101317.47;5064686;28;20021;-86
2022/08/18 10:41:21;;;;;;;2.80;2.60;;;;;;;24.13;71.06;101318.56;5059989;28;20081;-85
2022/08/18 10:43:51;;;;;;;2.55;2.35;;;;;;;24.40;70.76;101321.19;5055628;28;20504;-85
2022/08/18 10:46:21;;;;;;;2.20;2.10;;;;;;;24.59;70.36;101326.13;5052589;28;20032;-85
2022/08/18 10:49:12;;;;;;;3.17;2.88;;;;;;;24.66;69.06;101324.75;5056239;28;20017;-85
2022/08/18 10:52:02;;;;;;;2.90;2.70;;;;;;;24.65;69.75;101327.50;5064185;28;20036;-85
2022/08/18 10:55:04;;;;;;;3.35;3.05;;;;;;;24.64;69.38;101326.66;5063206;28;20432;-85
2022/08/18 10:58:14;;;;;;;2.70;2.50;;;;;;;24.62;67.43;101325.06;5052823;28;20029;-85
2022/08/18 11:00:57;;;;;;;2.85;2.60;;;;;;;24.49;68.63;101320.56;5052465;28;20394;-85
2022/08/18 11:03:53;;;;;;;2.90;2.70;;;;;;;24.50;69.64;101324.06;5052070;28;20025;-85
2022/08/18 11:06:41;;;;;;;3.20;2.90;;;;;;;24.58;69.70;101328.84;5053227;28;20029;-85
2022/08/18 11:09:08;;;;;;;4.45;3.00;;;;;;;24.63;69.24;101326.75;5051789;28;20043;-85
2022/08/18 11:11:51;;;;;;;3.08;2.80;;;;;;;24.61;64.87;101329.50;5053142;28;20437;-85
2022/08/18 11:14:47;;;;;;;2.70;2.50;;;;;;;24.53;68.88;101321.22;5051918;28;20473;-84
2022/08/18 11:17:43;;;;;;;2.63;2.42;;;;;;;24.51;69.17;101320.47;5051847;28;20031;-84
2022/08/18 11:20:30;;;;;;;2.92;2.60;;;;;;;24.46;69.53;101309.31;5052087;28;20092;-85
2022/08/18 11:22:58;;;;;;;2.83;2.63;;;;;;;24.42;67.93;101306.03;5051293;28;20044;-84
2022/08/18 11:25:37;;;;;;;2.75;2.50;;;;;;;24.37;69.42;101308.13;5052381;28;20104;-84
2022/08/18 11:28:29;;;;;;;2.70;2.50;;;;;;;24.35;69.87;101291.47;5070954;28;20047;-84
2022/08/18 11:30:55;;;;;;;2.90;2.60;;;;;;;24.34;69.35;101295.94;5069657;28;20050;-84
2022/08/18 11:33:40;;;;;;;3.10;2.63;;;;;;;24.34;69.32;101285.31;5072516;28;20032;-84
2022/08/18 11:36:06;;;;;;;3.00;2.70;;;;;;;24.57;68.72;101285.56;5071801;28;20028;-84
2022/08/18 11:38:32;;;;;;;2.50;2.30;;;;;;;24.78;68.41;101285.09;5072563;28;20074;-85
2022/08/18 11:41:17;;;;;;;;;;;;;;;24.82;67.96;101283.94;5070510;28;20384;-84
2022/08/18 11:43:43;;;;;;;;;;;;;;;24.81;68.36;101287.53;5072203;28;19978;-84
2022/08/18 11:46:37;;;;;;;2.78;2.58;;;;;;;24.85;68.70;101280.22;5071558;28;20359;-84
2022/08/18 11:49:32;;;;;;;2.70;2.50;;;;;;;24.92;68.16;101268.19;5069351;28;20388;-85
2022/08/18 11:52:19;;;;;;;2.80;2.60;;;;;;;25.12;66.87;101266.81;5071726;28;20031;-84
2022/08/18 11:54:48;;;;;;;3.85;3.55;;;;;;;25.40;62.93;101270.16;5072297;28;20043;-84
2022/08/18 12:00:37;;;;;;;2.85;2.65;;;;;;;26.17;65.28;101261.09;5070913;22;20064;-86
2022/08/18 12:03:14;;;;;;;2.60;2.40;;;;;;;26.40;64.97;101259.38;5035469;28;20128;-85
2022/08/18 12:05:50;;;;;;;2.70;2.50;;;;;;;26.52;63.44;101250.41;5036574;28;20025;-85
2022/08/18 12:08:24;;;;;;;2.65;2.45;;;;;;;26.50;64.29;101257.69;5036078;28;20026;-85
2022/08/18 12:11:01;;;;;;;3.60;3.30;;;;;;;26.38;63.35;101274.59;5033086;28;20032;-84
2022/08/18 12:13:27;;;;;;;3.00;2.80;;;;;;;26.29;62.87;101269.97;5036197;28;20037;-85
2022/08/18 12:16:10;;;;;;;4.13;3.20;;;;;;;26.13;62.45;101262.28;5053060;28;20029;-85
2022/08/18 12:18:35;;;;;;;2.90;2.70;;;;;;;26.15;63.91;101263.00;5055407;28;20029;-86
2022/08/18 12:21:01;;;;;;;2.83;2.63;;;;;;;26.34;63.75;101262.47;5055430;28;20481;-85
2022/08/18 12:23:26;;;;;;;2.88;2.67;;;;;;;26.62;63.81;101258.56;5055950;28;20163;-85
2022/08/18 12:25:52;;;;;;;2.90;2.70;;;;;;;26.83;63.05;101257.88;5055022;28;20120;-85
2022/08/18 12:28:20;;;;;;;4.85;4.35;;;;;;;26.88;55.79;101255.72;5055991;28;20381;-85
2022/08/18 12:30:45;;;;;;;4.18;3.78;;;;;;;26.86;56.39;101260.31;5055824;28;20025;-85
2022/08/18 12:33:10;;;;;;;4.73;3.50;;;;;;;26.82;61.89;101256.19;5054721;28;20021;-83